sensor_id;sensor_type;location;lat;lon;timestamp;P1;durP1;ratioP1;P2;durP2;ratioP2
29732;SDS011;16643;43.158;25.302;2022-08-01T00:02:33;3.25;;;2.20;;
29732;SDS011;16643;43.158;25.302;2022-08-01T00:08:50;6.28;;;2.45;;
29732;SDS011;16643;43.158;25.302;2022-08-01T00:11:26;5.17;;;2.70;;
29732;SDS011;16643;43.158;25.302;2022-08-01T00:13:57;4.93;;;2.30;;
29732;SDS011;16643;43.158;25.302;2022-08-01T00:17:04;3.53;;;2.25;;
29732;SDS011;16643;43.158;25.302;2022-08-01T00:23:39;4.47;;;2.33;;
29732;SDS011;16643;43.158;25.302;2022-08-01T00:30:24;3.00;;;2.25;;
29732;SDS011;16643;43.158;25.302;2022-08-01T00:32:56;4.95;;;2.42;;
29732;SDS011;16643;43.158;25.302;2022-08-01T00:35:31;5.20;;;2.75;;
29732;SDS011;16643;43.158;25.302;2022-08-01T00:38:02;3.40;;;2.22;;
29732;SDS011;16643;43.158;25.302;2022-08-01T00:40:29;2.97;;;2.22;;
29732;SDS011;16643;43.158;25.302;2022-08-01T00:42:55;3.35;;;2.20;;
29732;SDS011;16643;43.158;25.302;2022-08-01T00:45:28;5.22;;;2.90;;
29732;SDS011;16643;43.158;25.302;2022-08-01T00:48:10;5.47;;;2.33;;
29732;SDS011;16643;43.158;25.302;2022-08-01T00:50:37;8.60;;;2.10;;
29732;SDS011;16643;43.158;25.302;2022-08-01T00:53:41;5.88;;;2.65;;
29732;SDS011;16643;43.158;25.302;2022-08-01T00:56:10;2.90;;;2.33;;
29732;SDS011;16643;43.158;25.302;2022-08-01T00:58:37;4.18;;;2.35;;
29732;SDS011;16643;43.158;25.302;2022-08-01T01:05:20;3.85;;;2.67;;
29732;SDS011;16643;43.158;25.302;2022-08-01T01:08:13;5.45;;;2.55;;
29732;SDS011;16643;43.158;25.302;2022-08-01T01:11:08;5.13;;;2.58;;
29732;SDS011;16643;43.158;25.302;2022-08-01T01:13:42;2.83;;;2.45;;
29732;SDS011;16643;43.158;25.302;2022-08-01T01:16:17;6.97;;;2.80;;
29732;SDS011;16643;43.158;25.302;2022-08-01T01:19:20;6.95;;;2.83;;
29732;SDS011;16643;43.158;25.302;2022-08-01T01:31:00;4.15;;;2.45;;
29732;SDS011;16643;43.158;25.302;2022-08-01T01:34:05;4.97;;;2.53;;
29732;SDS011;16643;43.158;25.302;2022-08-01T01:37:46;3.30;;;2.60;;
29732;SDS011;16643;43.158;25.302;2022-08-01T01:40:17;4.07;;;2.00;;
29732;SDS011;16643;43.158;25.302;2022-08-01T01:42:48;5.50;;;2.20;;
29732;SDS011;16643;43.158;25.302;2022-08-01T01:45:18;6.30;;;2.25;;
29732;SDS011;16643;43.158;25.302;2022-08-01T01:47:48;3.22;;;2.20;;
29732;SDS011;16643;43.158;25.302;2022-08-01T01:50:17;4.95;;;2.15;;
29732;SDS011;16643;43.158;25.302;2022-08-01T01:57:02;3.33;;;1.75;;
29732;SDS011;16643;43.158;25.302;2022-08-01T01:59:38;3.25;;;1.98;;
29732;SDS011;16643;43.158;25.302;2022-08-01T02:02:20;2.30;;;2.08;;
29732;SDS011;16643;43.158;25.302;2022-08-01T02:04:59;5.70;;;2.33;;
29732;SDS011;16643;43.158;25.302;2022-08-01T02:07:50;3.40;;;2.25;;
29732;SDS011;16643;43.158;25.302;2022-08-01T02:10:19;2.97;;;2.05;;
29732;SDS011;16643;43.158;25.302;2022-08-01T02:12:49;3.22;;;2.20;;
29732;SDS011;16643;43.158;25.302;2022-08-01T02:16:12;2.38;;;1.70;;
29732;SDS011;16643;43.158;25.302;2022-08-01T02:28:10;3.60;;;1.98;;
29732;SDS011;16643;43.158;25.302;2022-08-01T02:31:12;4.18;;;2.05;;
29732;SDS011;16643;43.158;25.302;2022-08-01T02:34:40;2.75;;;1.90;;
29732;SDS011;16643;43.158;25.302;2022-08-01T02:37:18;3.20;;;2.05;;
29732;SDS011;16643;43.158;25.302;2022-08-01T02:40:45;4.97;;;2.13;;
29732;SDS011;16643;43.158;25.302;2022-08-01T02:43:36;3.63;;;2.10;;
29732;SDS011;16643;43.158;25.302;2022-08-01T02:49:36;3.08;;;2.22;;
29732;SDS011;16643;43.158;25.302;2022-08-01T02:56:20;4.18;;;2.50;;
29732;SDS011;16643;43.158;25.302;2022-08-01T03:06:17;4.05;;;2.28;;
29732;SDS011;16643;43.158;25.302;2022-08-01T03:12:11;2.25;;;1.90;;
29732;SDS011;16643;43.158;25.302;2022-08-01T03:15:45;5.03;;;2.15;;
29732;SDS011;16643;43.158;25.302;2022-08-01T03:18:36;2.88;;;1.83;;
29732;SDS011;16643;43.158;25.302;2022-08-01T03:21:30;2.92;;;2.17;;
29732;SDS011;16643;43.158;25.302;2022-08-01T03:27:42;2.83;;;2.05;;
29732;SDS011;16643;43.158;25.302;2022-08-01T03:34:27;4.75;;;2.00;;
29732;SDS011;16643;43.158;25.302;2022-08-01T03:40:41;3.83;;;2.42;;
29732;SDS011;16643;43.158;25.302;2022-08-01T03:47:25;5.50;;;2.20;;
29732;SDS011;16643;43.158;25.302;2022-08-01T03:50:50;7.40;;;2.30;;
29732;SDS011;16643;43.158;25.302;2022-08-01T03:57:37;4.38;;;1.90;;
29732;SDS011;16643;43.158;25.302;2022-08-01T04:00:16;4.53;;;2.17;;
29732;SDS011;16643;43.158;25.302;2022-08-01T04:03:07;3.95;;;1.67;;
29732;SDS011;16643;43.158;25.302;2022-08-01T04:05:57;3.10;;;1.75;;
29732;SDS011;16643;43.158;25.302;2022-08-01T04:08:53;3.90;;;1.80;;
29732;SDS011;16643;43.158;25.302;2022-08-01T04:11:45;2.63;;;1.80;;
29732;SDS011;16643;43.158;25.302;2022-08-01T04:17:45;3.38;;;1.98;;
29732;SDS011;16643;43.158;25.302;2022-08-01T04:21:14;4.05;;;2.25;;
29732;SDS011;16643;43.158;25.302;2022-08-01T04:23:45;4.75;;;1.90;;
29732;SDS011;16643;43.158;25.302;2022-08-01T04:26:18;3.88;;;2.08;;
29732;SDS011;16643;43.158;25.302;2022-08-01T04:28:51;2.75;;;1.63;;
29732;SDS011;16643;43.158;25.302;2022-08-01T04:38:09;5.05;;;2.05;;
29732;SDS011;16643;43.158;25.302;2022-08-01T04:44:39;3.92;;;2.35;;
29732;SDS011;16643;43.158;25.302;2022-08-01T04:47:12;6.95;;;2.38;;
29732;SDS011;16643;43.158;25.302;2022-08-01T04:50:20;4.68;;;2.33;;
29732;SDS011;16643;43.158;25.302;2022-08-01T04:52:48;3.47;;;1.80;;
29732;SDS011;16643;43.158;25.302;2022-08-01T04:55:40;3.88;;;2.08;;
29732;SDS011;16643;43.158;25.302;2022-08-01T04:58:14;3.25;;;2.17;;
29732;SDS011;16643;43.158;25.302;2022-08-01T05:04:39;4.53;;;1.98;;
29732;SDS011;16643;43.158;25.302;2022-08-01T05:07:12;3.60;;;1.80;;
29732;SDS011;16643;43.158;25.302;2022-08-01T05:09:44;3.30;;;1.98;;
29732;SDS011;16643;43.158;25.302;2022-08-01T05:12:13;3.42;;;2.15;;
29732;SDS011;16643;43.158;25.302;2022-08-01T05:14:46;2.72;;;1.83;;
29732;SDS011;16643;43.158;25.302;2022-08-01T05:17:16;3.30;;;2.30;;
29732;SDS011;16643;43.158;25.302;2022-08-01T05:19:42;3.22;;;1.95;;
29732;SDS011;16643;43.158;25.302;2022-08-01T05:22:12;3.28;;;2.13;;
29732;SDS011;16643;43.158;25.302;2022-08-01T05:24:41;4.85;;;1.88;;
29732;SDS011;16643;43.158;25.302;2022-08-01T05:27:37;2.83;;;2.00;;
29732;SDS011;16643;43.158;25.302;2022-08-01T05:30:12;3.58;;;1.92;;
29732;SDS011;16643;43.158;25.302;2022-08-01T05:32:41;3.65;;;1.95;;
29732;SDS011;16643;43.158;25.302;2022-08-01T05:35:07;3.58;;;2.10;;
29732;SDS011;16643;43.158;25.302;2022-08-01T05:37:49;7.57;;;2.30;;
29732;SDS011;16643;43.158;25.302;2022-08-01T05:40:35;2.42;;;1.63;;
29732;SDS011;16643;43.158;25.302;2022-08-01T05:43:06;3.45;;;1.80;;
29732;SDS011;16643;43.158;25.302;2022-08-01T05:46:12;4.93;;;1.80;;
29732;SDS011;16643;43.158;25.302;2022-08-01T05:52:05;4.53;;;2.33;;
29732;SDS011;16643;43.158;25.302;2022-08-01T05:54:35;4.10;;;1.80;;
29732;SDS011;16643;43.158;25.302;2022-08-01T05:57:02;1.95;;;1.45;;
29732;SDS011;16643;43.158;25.302;2022-08-01T05:59:41;3.70;;;1.57;;
29732;SDS011;16643;43.158;25.302;2022-08-01T06:02:14;3.10;;;2.00;;
29732;SDS011;16643;43.158;25.302;2022-08-01T06:04:42;3.35;;;1.70;;
29732;SDS011;16643;43.158;25.302;2022-08-01T06:08:05;4.63;;;2.17;;
29732;SDS011;16643;43.158;25.302;2022-08-01T06:17:50;5.30;;;1.92;;
29732;SDS011;16643;43.158;25.302;2022-08-01T06:20:16;4.18;;;1.77;;
29732;SDS011;16643;43.158;25.302;2022-08-01T06:26:05;3.53;;;1.92;;
29732;SDS011;16643;43.158;25.302;2022-08-01T06:28:57;4.60;;;1.80;;
29732;SDS011;16643;43.158;25.302;2022-08-01T06:32:24;3.28;;;2.00;;
29732;SDS011;16643;43.158;25.302;2022-08-01T06:34:54;3.65;;;1.95;;
29732;SDS011;16643;43.158;25.302;2022-08-01T06:37:31;3.38;;;1.70;;
29732;SDS011;16643;43.158;25.302;2022-08-01T06:40:29;3.90;;;1.88;;
29732;SDS011;16643;43.158;25.302;2022-08-01T06:43:23;4.18;;;1.60;;
29732;SDS011;16643;43.158;25.302;2022-08-01T06:46:31;3.33;;;1.90;;
29732;SDS011;16643;43.158;25.302;2022-08-01T06:50:00;2.67;;;1.80;;
29732;SDS011;16643;43.158;25.302;2022-08-01T06:52:33;3.13;;;1.70;;
29732;SDS011;16643;43.158;25.302;2022-08-01T06:55:45;5.47;;;2.05;;
29732;SDS011;16643;43.158;25.302;2022-08-01T07:05:07;4.57;;;1.90;;
29732;SDS011;16643;43.158;25.302;2022-08-01T07:14:57;3.20;;;1.77;;
29732;SDS011;16643;43.158;25.302;2022-08-01T07:17:42;3.40;;;1.58;;
29732;SDS011;16643;43.158;25.302;2022-08-01T07:20:37;4.25;;;1.83;;
29732;SDS011;16643;43.158;25.302;2022-08-01T07:29:24;3.15;;;1.83;;
29732;SDS011;16643;43.158;25.302;2022-08-01T07:36:01;2.45;;;1.80;;
29732;SDS011;16643;43.158;25.302;2022-08-01T07:38:28;8.52;;;2.13;;
29732;SDS011;16643;43.158;25.302;2022-08-01T07:41:06;9.98;;;1.80;;
29732;SDS011;16643;43.158;25.302;2022-08-01T07:46:51;3.33;;;1.73;;
29732;SDS011;16643;43.158;25.302;2022-08-01T07:49:27;2.53;;;1.48;;
29732;SDS011;16643;43.158;25.302;2022-08-01T07:51:55;3.85;;;1.63;;
29732;SDS011;16643;43.158;25.302;2022-08-01T07:54:24;3.78;;;1.65;;
29732;SDS011;16643;43.158;25.302;2022-08-01T07:56:57;6.72;;;1.83;;
29732;SDS011;16643;43.158;25.302;2022-08-01T08:04:06;5.22;;;1.30;;
29732;SDS011;16643;43.158;25.302;2022-08-01T08:06:45;3.30;;;1.50;;
29732;SDS011;16643;43.158;25.302;2022-08-01T08:09:22;3.95;;;1.40;;
29732;SDS011;16643;43.158;25.302;2022-08-01T08:11:57;3.40;;;1.40;;
29732;SDS011;16643;43.158;25.302;2022-08-01T08:15:05;2.70;;;1.90;;
29732;SDS011;16643;43.158;25.302;2022-08-01T08:21:50;3.85;;;1.63;;
29732;SDS011;16643;43.158;25.302;2022-08-01T08:27:41;5.13;;;1.50;;
29732;SDS011;16643;43.158;25.302;2022-08-01T08:33:59;4.45;;;2.00;;
29732;SDS011;16643;43.158;25.302;2022-08-01T08:36:29;3.90;;;1.48;;
29732;SDS011;16643;43.158;25.302;2022-08-01T08:39:21;3.17;;;1.60;;
29732;SDS011;16643;43.158;25.302;2022-08-01T08:45:54;5.05;;;1.30;;
29732;SDS011;16643;43.158;25.302;2022-08-01T08:50:53;3.53;;;1.30;;
29732;SDS011;16643;43.158;25.302;2022-08-01T08:53:23;1.75;;;1.27;;
29732;SDS011;16643;43.158;25.302;2022-08-01T08:55:51;4.50;;;1.30;;
29732;SDS011;16643;43.158;25.302;2022-08-01T08:58:22;3.60;;;1.38;;
29732;SDS011;16643;43.158;25.302;2022-08-01T09:01:45;1.70;;;1.08;;
29732;SDS011;16643;43.158;25.302;2022-08-01T09:07:39;1.83;;;1.27;;
29732;SDS011;16643;43.158;25.302;2022-08-01T09:17:03;6.05;;;1.35;;
29732;SDS011;16643;43.158;25.302;2022-08-01T09:33:21;1.52;;;1.20;;
29732;SDS011;16643;43.158;25.302;2022-08-01T09:39:33;1.77;;;1.10;;
29732;SDS011;16643;43.158;25.302;2022-08-01T09:59:17;3.90;;;1.20;;
29732;SDS011;16643;43.158;25.302;2022-08-01T10:06:20;2.85;;;1.17;;
29732;SDS011;16643;43.158;25.302;2022-08-01T10:12:44;1.58;;;0.85;;
29732;SDS011;16643;43.158;25.302;2022-08-01T10:21:53;1.45;;;1.30;;
29732;SDS011;16643;43.158;25.302;2022-08-01T10:27:45;3.00;;;1.00;;
29732;SDS011;16643;43.158;25.302;2022-08-01T10:30:20;3.60;;;1.20;;
29732;SDS011;16643;43.158;25.302;2022-08-01T10:32:47;3.47;;;0.82;;
29732;SDS011;16643;43.158;25.302;2022-08-01T10:35:14;1.67;;;1.20;;
29732;SDS011;16643;43.158;25.302;2022-08-01T10:37:49;1.75;;;1.00;;
29732;SDS011;16643;43.158;25.302;2022-08-01T10:40:29;1.60;;;1.10;;
29732;SDS011;16643;43.158;25.302;2022-08-01T10:42:58;1.90;;;0.90;;
29732;SDS011;16643;43.158;25.302;2022-08-01T10:45:48;3.90;;;1.40;;
29732;SDS011;16643;43.158;25.302;2022-08-01T10:48:18;1.38;;;0.88;;
29732;SDS011;16643;43.158;25.302;2022-08-01T10:50:58;1.65;;;1.10;;
29732;SDS011;16643;43.158;25.302;2022-08-01T10:53:27;3.00;;;1.23;;
29732;SDS011;16643;43.158;25.302;2022-08-01T10:56:04;4.85;;;1.10;;
29732;SDS011;16643;43.158;25.302;2022-08-01T11:03:41;5.10;;;1.15;;
29732;SDS011;16643;43.158;25.302;2022-08-01T11:06:18;4.28;;;1.10;;
29732;SDS011;16643;43.158;25.302;2022-08-01T11:08:53;3.50;;;1.10;;
29732;SDS011;16643;43.158;25.302;2022-08-01T11:11:20;1.75;;;1.00;;
29732;SDS011;16643;43.158;25.302;2022-08-01T11:16:27;1.60;;;1.05;;
29732;SDS011;16643;43.158;25.302;2022-08-01T11:22:16;2.45;;;1.00;;
29732;SDS011;16643;43.158;25.302;2022-08-01T11:27:15;3.17;;;1.08;;
29732;SDS011;16643;43.158;25.302;2022-08-01T11:33:12;2.35;;;1.17;;
29732;SDS011;16643;43.158;25.302;2022-08-01T11:35:31;2.38;;;1.20;;
29732;SDS011;16643;43.158;25.302;2022-08-01T11:41:08;2.13;;;0.95;;
29732;SDS011;16643;43.158;25.302;2022-08-01T11:43:34;1.80;;;1.58;;
29732;SDS011;16643;43.158;25.302;2022-08-01T11:46:00;1.50;;;1.30;;
29732;SDS011;16643;43.158;25.302;2022-08-01T11:48:27;1.88;;;1.30;;
29732;SDS011;16643;43.158;25.302;2022-08-01T11:50:54;2.83;;;1.75;;
29732;SDS011;16643;43.158;25.302;2022-08-01T11:53:25;1.63;;;1.30;;
29732;SDS011;16643;43.158;25.302;2022-08-01T11:55:55;2.88;;;1.17;;
29732;SDS011;16643;43.158;25.302;2022-08-01T11:58:24;1.75;;;1.02;;
29732;SDS011;16643;43.158;25.302;2022-08-01T12:00:54;2.63;;;1.10;;
29732;SDS011;16643;43.158;25.302;2022-08-01T12:03:30;2.90;;;1.90;;
29732;SDS011;16643;43.158;25.302;2022-08-01T12:06:27;1.98;;;1.30;;
29732;SDS011;16643;43.158;25.302;2022-08-01T12:08:55;1.92;;;1.50;;
29732;SDS011;16643;43.158;25.302;2022-08-01T12:11:40;2.43;;;1.33;;
29732;SDS011;16643;43.158;25.302;2022-08-01T12:14:07;4.30;;;1.35;;
29732;SDS011;16643;43.158;25.302;2022-08-01T12:16:50;3.92;;;1.55;;
29732;SDS011;16643;43.158;25.302;2022-08-01T12:19:21;1.55;;;1.40;;
29732;SDS011;16643;43.158;25.302;2022-08-01T12:24:40;12.32;;;2.10;;
29732;SDS011;16643;43.158;25.302;2022-08-01T12:27:08;4.53;;;1.50;;
29732;SDS011;16643;43.158;25.302;2022-08-01T12:32:20;2.50;;;1.35;;
29732;SDS011;16643;43.158;25.302;2022-08-01T12:35:00;5.05;;;1.50;;
29732;SDS011;16643;43.158;25.302;2022-08-01T12:37:42;2.17;;;1.40;;
29732;SDS011;16643;43.158;25.302;2022-08-01T12:40:15;1.73;;;1.30;;
29732;SDS011;16643;43.158;25.302;2022-08-01T12:42:47;1.58;;;1.20;;
29732;SDS011;16643;43.158;25.302;2022-08-01T12:45:24;2.20;;;1.40;;
29732;SDS011;16643;43.158;25.302;2022-08-01T12:47:52;3.60;;;1.10;;
29732;SDS011;16643;43.158;25.302;2022-08-01T12:50:23;2.38;;;1.10;;
29732;SDS011;16643;43.158;25.302;2022-08-01T12:52:53;2.15;;;1.20;;
29732;SDS011;16643;43.158;25.302;2022-08-01T12:57:48;2.87;;;1.40;;
29732;SDS011;16643;43.158;25.302;2022-08-01T13:00:18;1.98;;;1.23;;
29732;SDS011;16643;43.158;25.302;2022-08-01T13:02:47;1.10;;;0.90;;
29732;SDS011;16643;43.158;25.302;2022-08-01T13:05:14;1.20;;;1.10;;
29732;SDS011;16643;43.158;25.302;2022-08-01T13:07:45;2.42;;;1.15;;
29732;SDS011;16643;43.158;25.302;2022-08-01T13:10:23;1.85;;;1.20;;
29732;SDS011;16643;43.158;25.302;2022-08-01T13:12:55;2.40;;;0.93;;
29732;SDS011;16643;43.158;25.302;2022-08-01T13:17:51;1.48;;;1.00;;
29732;SDS011;16643;43.158;25.302;2022-08-01T13:20:36;1.20;;;0.98;;
29732;SDS011;16643;43.158;25.302;2022-08-01T13:23:09;1.50;;;1.02;;
29732;SDS011;16643;43.158;25.302;2022-08-01T13:25:48;1.05;;;0.70;;
29732;SDS011;16643;43.158;25.302;2022-08-01T13:28:18;3.33;;;1.00;;
29732;SDS011;16643;43.158;25.302;2022-08-01T13:30:59;2.15;;;0.90;;
29732;SDS011;16643;43.158;25.302;2022-08-01T13:33:27;1.98;;;0.80;;
29732;SDS011;16643;43.158;25.302;2022-08-01T13:36:06;1.95;;;0.90;;
29732;SDS011;16643;43.158;25.302;2022-08-01T13:38:32;1.55;;;0.75;;
29732;SDS011;16643;43.158;25.302;2022-08-01T13:41:16;1.70;;;0.90;;
29732;SDS011;16643;43.158;25.302;2022-08-01T13:43:42;1.00;;;0.70;;
29732;SDS011;16643;43.158;25.302;2022-08-01T13:46:08;3.65;;;0.95;;
29732;SDS011;16643;43.158;25.302;2022-08-01T13:48:34;1.40;;;0.90;;
29732;SDS011;16643;43.158;25.302;2022-08-01T13:51:00;5.20;;;1.00;;
29732;SDS011;16643;43.158;25.302;2022-08-01T13:53:32;1.08;;;0.98;;
29732;SDS011;16643;43.158;25.302;2022-08-01T13:55:58;1.45;;;0.93;;
29732;SDS011;16643;43.158;25.302;2022-08-01T13:58:24;1.50;;;0.85;;
29732;SDS011;16643;43.158;25.302;2022-08-01T14:00:50;0.98;;;0.82;;
29732;SDS011;16643;43.158;25.302;2022-08-01T14:03:16;1.80;;;0.95;;
29732;SDS011;16643;43.158;25.302;2022-08-01T14:05:43;1.90;;;1.08;;
29732;SDS011;16643;43.158;25.302;2022-08-01T14:08:10;1.10;;;0.80;;
29732;SDS011;16643;43.158;25.302;2022-08-01T14:10:36;1.55;;;1.10;;
29732;SDS011;16643;43.158;25.302;2022-08-01T14:13:02;2.58;;;0.65;;
29732;SDS011;16643;43.158;25.302;2022-08-01T14:15:29;1.30;;;0.73;;
29732;SDS011;16643;43.158;25.302;2022-08-01T14:17:57;0.70;;;0.70;;
29732;SDS011;16643;43.158;25.302;2022-08-01T14:22:49;0.70;;;0.70;;
29732;SDS011;16643;43.158;25.302;2022-08-01T14:25:15;2.83;;;0.95;;
29732;SDS011;16643;43.158;25.302;2022-08-01T14:30:09;2.60;;;0.90;;
29732;SDS011;16643;43.158;25.302;2022-08-01T14:32:37;1.35;;;0.80;;
29732;SDS011;16643;43.158;25.302;2022-08-01T14:35:03;1.95;;;0.60;;
29732;SDS011;16643;43.158;25.302;2022-08-01T14:37:32;2.72;;;1.00;;
29732;SDS011;16643;43.158;25.302;2022-08-01T14:39:59;1.20;;;0.80;;
29732;SDS011;16643;43.158;25.302;2022-08-01T14:42:30;1.90;;;1.10;;
29732;SDS011;16643;43.158;25.302;2022-08-01T14:44:56;0.95;;;0.80;;
29732;SDS011;16643;43.158;25.302;2022-08-01T14:47:22;0.77;;;0.60;;
29732;SDS011;16643;43.158;25.302;2022-08-01T14:49:49;0.90;;;0.75;;
29732;SDS011;16643;43.158;25.302;2022-08-01T14:52:15;0.85;;;0.70;;
29732;SDS011;16643;43.158;25.302;2022-08-01T14:54:42;1.13;;;0.75;;
29732;SDS011;16643;43.158;25.302;2022-08-01T14:57:08;0.60;;;0.60;;
29732;SDS011;16643;43.158;25.302;2022-08-01T14:59:35;2.67;;;0.80;;
29732;SDS011;16643;43.158;25.302;2022-08-01T15:02:01;1.10;;;0.90;;
29732;SDS011;16643;43.158;25.302;2022-08-01T15:04:27;0.80;;;0.80;;
29732;SDS011;16643;43.158;25.302;2022-08-01T15:06:57;2.38;;;0.90;;
29732;SDS011;16643;43.158;25.302;2022-08-01T15:09:23;0.88;;;0.70;;
29732;SDS011;16643;43.158;25.302;2022-08-01T15:11:49;1.95;;;0.80;;
29732;SDS011;16643;43.158;25.302;2022-08-01T15:14:15;2.35;;;0.70;;
29732;SDS011;16643;43.158;25.302;2022-08-01T15:17:00;1.27;;;0.73;;
29732;SDS011;16643;43.158;25.302;2022-08-01T15:19:26;0.90;;;0.70;;
29732;SDS011;16643;43.158;25.302;2022-08-01T15:21:53;2.92;;;0.85;;
29732;SDS011;16643;43.158;25.302;2022-08-01T15:24:19;2.00;;;0.88;;
29732;SDS011;16643;43.158;25.302;2022-08-01T15:26:45;1.08;;;0.85;;
29732;SDS011;16643;43.158;25.302;2022-08-01T15:29:11;0.80;;;0.70;;
29732;SDS011;16643;43.158;25.302;2022-08-01T15:31:38;0.88;;;0.88;;
29732;SDS011;16643;43.158;25.302;2022-08-01T15:34:04;1.13;;;0.70;;
29732;SDS011;16643;43.158;25.302;2022-08-01T15:36:30;0.88;;;0.82;;
29732;SDS011;16643;43.158;25.302;2022-08-01T15:38:56;3.30;;;0.80;;
29732;SDS011;16643;43.158;25.302;2022-08-01T15:41:22;2.08;;;0.68;;
29732;SDS011;16643;43.158;25.302;2022-08-01T15:43:48;3.17;;;1.30;;
29732;SDS011;16643;43.158;25.302;2022-08-01T15:46:15;0.63;;;0.63;;
29732;SDS011;16643;43.158;25.302;2022-08-01T15:48:40;1.63;;;1.00;;
29732;SDS011;16643;43.158;25.302;2022-08-01T15:51:06;1.65;;;0.70;;
29732;SDS011;16643;43.158;25.302;2022-08-01T15:53:32;0.70;;;0.70;;
29732;SDS011;16643;43.158;25.302;2022-08-01T15:55:58;2.17;;;0.85;;
29732;SDS011;16643;43.158;25.302;2022-08-01T15:58:25;0.95;;;0.70;;
29732;SDS011;16643;43.158;25.302;2022-08-01T16:00:51;0.82;;;0.82;;
29732;SDS011;16643;43.158;25.302;2022-08-01T16:03:17;2.35;;;0.82;;
29732;SDS011;16643;43.158;25.302;2022-08-01T16:05:43;3.30;;;0.70;;
29732;SDS011;16643;43.158;25.302;2022-08-01T16:08:12;0.60;;;0.60;;
29732;SDS011;16643;43.158;25.302;2022-08-01T16:10:38;1.13;;;0.70;;
29732;SDS011;16643;43.158;25.302;2022-08-01T16:13:04;1.02;;;0.70;;
29732;SDS011;16643;43.158;25.302;2022-08-01T16:15:31;2.22;;;0.90;;
29732;SDS011;16643;43.158;25.302;2022-08-01T16:17:57;1.73;;;0.80;;
29732;SDS011;16643;43.158;25.302;2022-08-01T16:20:23;4.82;;;0.90;;
29732;SDS011;16643;43.158;25.302;2022-08-01T16:22:49;4.78;;;0.88;;
29732;SDS011;16643;43.158;25.302;2022-08-01T16:25:14;0.68;;;0.68;;
29732;SDS011;16643;43.158;25.302;2022-08-01T16:27:42;1.17;;;0.82;;
29732;SDS011;16643;43.158;25.302;2022-08-01T16:30:08;0.98;;;0.80;;
29732;SDS011;16643;43.158;25.302;2022-08-01T16:32:34;1.52;;;0.68;;
29732;SDS011;16643;43.158;25.302;2022-08-01T16:35:00;0.82;;;0.73;;
29732;SDS011;16643;43.158;25.302;2022-08-01T16:37:26;1.08;;;0.80;;
29732;SDS011;16643;43.158;25.302;2022-08-01T16:39:52;0.70;;;0.70;;
29732;SDS011;16643;43.158;25.302;2022-08-01T16:42:18;1.15;;;0.80;;
29732;SDS011;16643;43.158;25.302;2022-08-01T16:44:44;4.07;;;1.33;;
29732;SDS011;16643;43.158;25.302;2022-08-01T16:47:10;0.77;;;0.77;;
29732;SDS011;16643;43.158;25.302;2022-08-01T16:49:36;1.10;;;0.70;;
29732;SDS011;16643;43.158;25.302;2022-08-01T16:52:03;3.65;;;0.70;;
29732;SDS011;16643;43.158;25.302;2022-08-01T16:54:29;0.70;;;0.70;;
29732;SDS011;16643;43.158;25.302;2022-08-01T16:56:55;0.70;;;0.70;;
29732;SDS011;16643;43.158;25.302;2022-08-01T16:59:21;4.78;;;1.13;;
29732;SDS011;16643;43.158;25.302;2022-08-01T17:01:47;2.20;;;0.70;;
29732;SDS011;16643;43.158;25.302;2022-08-01T17:04:13;0.93;;;0.70;;
29732;SDS011;16643;43.158;25.302;2022-08-01T17:06:39;1.08;;;0.77;;
29732;SDS011;16643;43.158;25.302;2022-08-01T17:09:05;0.68;;;0.68;;
29732;SDS011;16643;43.158;25.302;2022-08-01T17:11:33;0.60;;;0.60;;
29732;SDS011;16643;43.158;25.302;2022-08-01T17:13:59;1.42;;;0.80;;
29732;SDS011;16643;43.158;25.302;2022-08-01T17:16:25;1.98;;;0.80;;
29732;SDS011;16643;43.158;25.302;2022-08-01T17:18:52;0.90;;;0.70;;
29732;SDS011;16643;43.158;25.302;2022-08-01T17:21:18;2.15;;;0.90;;
29732;SDS011;16643;43.158;25.302;2022-08-01T17:23:44;1.77;;;0.68;;
29732;SDS011;16643;43.158;25.302;2022-08-01T17:26:10;1.60;;;0.80;;
29732;SDS011;16643;43.158;25.302;2022-08-01T17:28:36;0.85;;;0.73;;
29732;SDS011;16643;43.158;25.302;2022-08-01T17:31:02;1.67;;;1.00;;
29732;SDS011;16643;43.158;25.302;2022-08-01T17:33:28;1.30;;;1.10;;
29732;SDS011;16643;43.158;25.302;2022-08-01T17:35:54;1.50;;;1.08;;
29732;SDS011;16643;43.158;25.302;2022-08-01T17:38:20;1.67;;;1.05;;
29732;SDS011;16643;43.158;25.302;2022-08-01T17:40:46;1.92;;;1.20;;
29732;SDS011;16643;43.158;25.302;2022-08-01T17:43:12;1.80;;;1.08;;
29732;SDS011;16643;43.158;25.302;2022-08-01T17:45:39;1.10;;;1.00;;
29732;SDS011;16643;43.158;25.302;2022-08-01T17:48:07;2.30;;;1.50;;
29732;SDS011;16643;43.158;25.302;2022-08-01T17:50:43;1.65;;;1.20;;
29732;SDS011;16643;43.158;25.302;2022-08-01T17:53:11;2.95;;;1.38;;
29732;SDS011;16643;43.158;25.302;2022-08-01T17:55:37;1.60;;;1.40;;
29732;SDS011;16643;43.158;25.302;2022-08-01T17:58:06;2.25;;;1.02;;
29732;SDS011;16643;43.158;25.302;2022-08-01T18:03:00;1.65;;;1.23;;
29732;SDS011;16643;43.158;25.302;2022-08-01T18:05:26;2.25;;;1.30;;
29732;SDS011;16643;43.158;25.302;2022-08-01T18:07:52;5.45;;;1.20;;
29732;SDS011;16643;43.158;25.302;2022-08-01T18:10:18;0.82;;;0.80;;
29732;SDS011;16643;43.158;25.302;2022-08-01T18:12:44;1.77;;;1.20;;
29732;SDS011;16643;43.158;25.302;2022-08-01T18:15:10;2.67;;;1.20;;
29732;SDS011;16643;43.158;25.302;2022-08-01T18:17:36;2.50;;;0.93;;
29732;SDS011;16643;43.158;25.302;2022-08-01T18:20:02;1.67;;;1.25;;
29732;SDS011;16643;43.158;25.302;2022-08-01T18:22:28;0.88;;;0.75;;
29732;SDS011;16643;43.158;25.302;2022-08-01T18:24:54;4.10;;;0.88;;
29732;SDS011;16643;43.158;25.302;2022-08-01T18:27:20;2.10;;;0.73;;
29732;SDS011;16643;43.158;25.302;2022-08-01T18:29:46;4.20;;;1.00;;
29732;SDS011;16643;43.158;25.302;2022-08-01T18:32:12;3.03;;;0.82;;
29732;SDS011;16643;43.158;25.302;2022-08-01T18:34:38;1.17;;;0.68;;
29732;SDS011;16643;43.158;25.302;2022-08-01T18:37:04;0.70;;;0.70;;
29732;SDS011;16643;43.158;25.302;2022-08-01T18:39:30;4.22;;;0.93;;
29732;SDS011;16643;43.158;25.302;2022-08-01T18:41:56;1.10;;;0.70;;
29732;SDS011;16643;43.158;25.302;2022-08-01T18:44:24;1.73;;;0.90;;
29732;SDS011;16643;43.158;25.302;2022-08-01T18:46:50;2.70;;;1.23;;
29732;SDS011;16643;43.158;25.302;2022-08-01T18:49:18;3.13;;;1.50;;
29732;SDS011;16643;43.158;25.302;2022-08-01T18:51:45;2.20;;;1.40;;
29732;SDS011;16643;43.158;25.302;2022-08-01T18:54:14;1.80;;;1.38;;
29732;SDS011;16643;43.158;25.302;2022-08-01T18:56:41;2.13;;;1.63;;
29732;SDS011;16643;43.158;25.302;2022-08-01T18:59:08;2.22;;;1.67;;
29732;SDS011;16643;43.158;25.302;2022-08-01T19:01:34;3.33;;;1.63;;
29732;SDS011;16643;43.158;25.302;2022-08-01T19:04:00;2.38;;;1.88;;
29732;SDS011;16643;43.158;25.302;2022-08-01T19:06:27;3.75;;;2.20;;
29732;SDS011;16643;43.158;25.302;2022-08-01T19:08:53;3.50;;;1.75;;
29732;SDS011;16643;43.158;25.302;2022-08-01T19:11:19;4.47;;;2.35;;
29732;SDS011;16643;43.158;25.302;2022-08-01T19:13:45;2.75;;;1.83;;
29732;SDS011;16643;43.158;25.302;2022-08-01T19:16:11;2.95;;;1.88;;
29732;SDS011;16643;43.158;25.302;2022-08-01T19:18:37;3.13;;;2.20;;
29732;SDS011;16643;43.158;25.302;2022-08-01T19:23:31;3.85;;;2.40;;
29732;SDS011;16643;43.158;25.302;2022-08-01T19:26:18;3.05;;;2.40;;
29732;SDS011;16643;43.158;25.302;2022-08-01T19:28:49;4.57;;;2.38;;
29732;SDS011;16643;43.158;25.302;2022-08-01T19:31:17;4.50;;;2.40;;
29732;SDS011;16643;43.158;25.302;2022-08-01T19:33:47;5.13;;;2.40;;
29732;SDS011;16643;43.158;25.302;2022-08-01T19:36:16;3.22;;;2.50;;